createdAt,value
2022-11-12T00:01:09.923Z,8.80
2022-11-12T00:03:37.601Z,8.75
2022-11-12T00:06:04.932Z,8.85
2022-11-12T00:08:32.109Z,8.88
2022-11-12T00:10:59.651Z,8.86
2022-11-12T00:13:26.976Z,8.88
2022-11-12T00:15:55.463Z,8.86
2022-11-12T00:18:23.112Z,8.87
2022-11-12T00:20:50.391Z,8.81
2022-11-12T00:23:17.933Z,8.82
2022-11-12T00:25:45.181Z,8.75
2022-11-12T00:28:12.473Z,8.68
2022-11-12T00:30:41.278Z,8.65
2022-11-12T00:33:08.740Z,8.65
2022-11-12T00:35:36.361Z,8.65
2022-11-12T00:38:03.580Z,8.70
2022-11-12T00:40:30.879Z,8.65
2022-11-12T00:42:58.369Z,8.68
2022-11-12T00:45:25.626Z,8.68
2022-11-12T00:47:57.041Z,8.69
2022-11-12T00:50:25.851Z,8.60
2022-11-12T00:52:54.395Z,8.54
2022-11-12T00:55:21.765Z,8.59
2022-11-12T00:57:49.359Z,8.54
2022-11-12T01:00:19.640Z,8.56
2022-11-12T01:02:51.045Z,8.54
2022-11-12T01:05:20.135Z,8.56
2022-11-12T01:07:53.095Z,8.50
2022-11-12T01:10:23.559Z,8.47
2022-11-12T01:12:50.748Z,8.37
2022-11-12T01:15:18.452Z,8.39
2022-11-12T01:17:45.665Z,8.37
2022-11-12T01:20:13.323Z,8.38
2022-11-12T01:22:40.566Z,8.35
2022-11-12T01:25:08.099Z,8.37
2022-11-12T01:27:35.742Z,8.34
2022-11-12T01:30:05.205Z,8.22
2022-11-12T01:32:37.302Z,8.28
2022-11-12T01:35:05.242Z,8.29
2022-11-12T01:37:32.491Z,8.33
2022-11-12T01:39:59.729Z,8.34
2022-11-12T01:42:32.125Z,8.41
2022-11-12T01:44:59.298Z,8.36
2022-11-12T01:47:33.171Z,8.31
2022-11-12T01:50:22.067Z,8.32
2022-11-12T01:53:06.964Z,8.22
2022-11-12T01:55:38.045Z,8.24
2022-11-12T01:58:11.797Z,8.24
2022-11-12T02:00:43.538Z,8.26
2022-11-12T02:03:20.468Z,8.25
2022-11-12T02:05:57.164Z,8.21
2022-11-12T02:08:27.444Z,8.28
2022-11-12T02:10:55.277Z,8.27
2022-11-12T02:14:01.503Z,8.33
2022-11-12T02:16:37.978Z,8.32
2022-11-12T02:19:10.427Z,8.31
2022-11-12T02:21:38.302Z,8.27
2022-11-12T02:24:14.259Z,8.26
2022-11-12T02:26:47.847Z,8.30
2022-11-12T02:29:15.336Z,8.28
2022-11-12T02:31:43.298Z,8.25
2022-11-12T02:34:10.555Z,8.24
2022-11-12T02:36:38.235Z,8.23
2022-11-12T02:39:06.378Z,8.24
2022-11-12T02:41:33.580Z,8.23
2022-11-12T02:44:01.354Z,8.26
2022-11-12T02:46:28.540Z,8.28
2022-11-12T02:48:55.824Z,8.27
2022-11-12T02:51:23.308Z,8.31
2022-11-12T02:53:50.524Z,8.32
2022-11-12T02:56:18.020Z,8.31
2022-11-12T02:58:45.256Z,8.31
2022-11-12T03:01:12.459Z,8.29
2022-11-12T03:03:40.004Z,8.26
2022-11-12T03:06:07.899Z,8.28
2022-11-12T03:08:35.296Z,8.21
2022-11-12T03:11:15.945Z,8.14
2022-11-12T03:13:43.563Z,8.16
2022-11-12T03:16:11.067Z,8.16
2022-11-12T03:18:39.034Z,8.20
2022-11-12T03:21:06.522Z,8.19
2022-11-12T03:23:34.150Z,8.16
2022-11-12T03:26:04.243Z,8.23
2022-11-12T03:28:32.109Z,8.21
2022-11-12T03:31:01.034Z,8.23
2022-11-12T03:33:28.665Z,8.19
2022-11-12T03:35:56.162Z,8.20
2022-11-12T03:38:24.091Z,8.22
2022-11-12T03:40:51.843Z,8.22
2022-11-12T03:43:19.112Z,8.22
2022-11-12T03:45:46.633Z,8.22
2022-11-12T03:48:13.847Z,8.24
2022-11-12T03:50:41.152Z,8.28
2022-11-12T03:53:09.326Z,8.31
2022-11-12T03:55:36.684Z,8.31
2022-11-12T03:58:04.451Z,8.29
2022-11-12T04:00:31.915Z,8.25
2022-11-12T04:03:00.187Z,8.25
2022-11-12T04:05:46.246Z,8.18
2022-11-12T04:08:37.844Z,8.19
2022-11-12T04:11:16.562Z,8.21
2022-11-12T04:13:47.875Z,8.22
2022-11-12T04:16:40.793Z,8.23
2022-11-12T04:19:31.091Z,8.22
2022-11-12T04:22:09.627Z,8.22
2022-11-12T04:24:59.326Z,8.28
2022-11-12T04:27:33.564Z,8.25
2022-11-12T04:30:16.352Z,8.23
2022-11-12T04:32:54.792Z,8.22
2022-11-12T04:35:24.572Z,8.23
2022-11-12T04:37:52.489Z,8.24
2022-11-12T04:40:46.200Z,8.21
2022-11-12T04:43:36.834Z,8.21
2022-11-12T04:46:05.359Z,8.22
2022-11-12T04:48:33.216Z,8.21
2022-11-12T04:51:29.039Z,8.23
2022-11-12T04:53:56.506Z,8.24
2022-11-12T04:56:23.733Z,8.18
2022-11-12T04:58:50.955Z,8.18
2022-11-12T05:01:18.507Z,8.20
2022-11-12T05:03:45.769Z,8.20
2022-11-12T05:06:31.270Z,8.19
2022-11-12T05:08:58.890Z,8.19
2022-11-12T05:11:26.085Z,8.16
2022-11-12T05:13:53.339Z,8.15
2022-11-12T05:16:20.822Z,8.14
2022-11-12T05:18:48.035Z,8.10
2022-11-12T05:21:33.463Z,8.14
2022-11-12T05:24:01.041Z,8.10
2022-11-12T05:26:29.331Z,8.12
2022-11-12T05:28:56.595Z,8.10
2022-11-12T05:31:24.032Z,8.12
2022-11-12T05:33:51.348Z,8.13
2022-11-12T05:36:18.579Z,8.09
2022-11-12T05:38:46.096Z,8.12
2022-11-12T05:41:18.781Z,8.15
2022-11-12T05:43:47.553Z,8.14
2022-11-12T05:46:14.822Z,8.16
2022-11-12T05:48:42.029Z,8.16
2022-11-12T05:51:13.562Z,8.20
2022-11-12T05:53:42.608Z,8.20
2022-11-12T05:56:11.668Z,8.23
2022-11-12T05:58:39.597Z,8.23
2022-11-12T06:01:07.460Z,8.24
2022-11-12T06:03:35.028Z,8.28
2022-11-12T06:06:02.512Z,8.30
2022-11-12T06:08:29.878Z,8.33
2022-11-12T06:10:57.163Z,8.35
2022-11-12T06:13:26.499Z,8.38
2022-11-12T06:15:54.950Z,8.42
2022-11-12T06:18:23.980Z,8.48
2022-11-12T06:21:10.059Z,8.53
2022-11-12T06:23:37.703Z,8.57
2022-11-12T06:26:05.409Z,8.60
2022-11-12T06:28:32.651Z,8.64
2022-11-12T06:30:59.866Z,8.67
2022-11-12T06:33:27.420Z,8.69
2022-11-12T06:36:03.158Z,8.74
2022-11-12T06:38:33.310Z,8.71
2022-11-12T06:41:00.846Z,8.77
2022-11-12T06:43:31.381Z,8.81
2022-11-12T06:46:04.772Z,8.82
2022-11-12T06:48:32.391Z,8.91
2022-11-12T06:51:06.779Z,8.96
2022-11-12T06:53:34.491Z,8.97
2022-11-12T06:56:04.851Z,9.03
2022-11-12T06:58:32.528Z,9.14
2022-11-12T07:01:11.199Z,9.29
2022-11-12T07:03:41.989Z,9.39
2022-11-12T07:06:13.466Z,9.43
2022-11-12T07:08:42.153Z,9.52
2022-11-12T07:11:11.077Z,9.65
2022-11-12T07:13:38.757Z,9.78
2022-11-12T07:16:10.915Z,9.91
2022-11-12T07:18:38.793Z,10.03
2022-11-12T07:21:10.615Z,10.15
2022-11-12T07:23:38.721Z,10.27
2022-11-12T07:26:13.897Z,10.35
2022-11-12T07:28:41.771Z,10.45
2022-11-12T07:31:12.565Z,10.57
2022-11-12T07:33:40.704Z,10.66
2022-11-12T07:36:14.871Z,10.71
2022-11-12T07:38:44.381Z,10.87
2022-11-12T07:41:17.269Z,11.05
2022-11-12T07:43:48.977Z,11.11
2022-11-12T07:46:24.309Z,11.17
2022-11-12T07:48:52.489Z,11.22
2022-11-12T07:51:26.968Z,11.33
2022-11-12T07:53:59.490Z,11.42
2022-11-12T07:56:28.686Z,11.53
2022-11-12T07:58:56.338Z,11.59
2022-11-12T08:01:36.299Z,11.66
2022-11-12T08:04:09.388Z,11.73
2022-11-12T08:06:37.963Z,11.80
2022-11-12T08:09:08.583Z,11.93
2022-11-12T08:11:35.882Z,12.34
2022-11-12T08:14:04.166Z,12.77
2022-11-12T08:16:31.844Z,13.82
2022-11-12T08:19:00.502Z,16.93
2022-11-12T08:21:27.807Z,19.75
2022-11-12T08:23:55.390Z,22.30
2022-11-12T08:26:23.591Z,24.00
2022-11-12T08:28:51.093Z,25.66
2022-11-12T08:31:23.866Z,26.45
2022-11-12T08:33:51.395Z,27.73
2022-11-12T08:36:19.040Z,29.03
2022-11-12T08:38:46.771Z,30.41
2022-11-12T08:41:17.721Z,30.13
2022-11-12T08:43:45.791Z,31.16
2022-11-12T08:46:13.158Z,32.26
2022-11-12T08:48:40.690Z,33.38
2022-11-12T08:51:08.389Z,34.08
2022-11-12T08:53:36.208Z,35.14
2022-11-12T08:56:03.815Z,35.95
2022-11-12T08:58:31.441Z,35.93
2022-11-12T09:01:06.405Z,36.35
2022-11-12T09:03:34.009Z,36.16
2022-11-12T09:06:05.585Z,36.97
2022-11-12T09:08:36.302Z,38.05
2022-11-12T09:11:04.661Z,38.14
2022-11-12T09:13:32.364Z,39.16
2022-11-12T09:16:06.374Z,39.65
2022-11-12T09:18:35.272Z,39.27
2022-11-12T09:21:10.783Z,40.29
2022-11-12T09:23:38.530Z,40.91
2022-11-12T09:26:06.821Z,41.67
2022-11-12T09:28:34.438Z,41.17
2022-11-12T09:31:02.217Z,41.03
2022-11-12T09:33:34.072Z,41.08
2022-11-12T09:36:03.034Z,41.36
2022-11-12T09:38:31.514Z,41.30
2022-11-12T09:41:34.427Z,42.86
2022-11-12T09:44:11.455Z,43.29
2022-11-12T09:46:54.299Z,42.28
2022-11-12T09:49:31.411Z,41.38
2022-11-12T09:52:27.108Z,41.55
2022-11-12T09:55:21.139Z,41.73
2022-11-12T09:57:48.360Z,41.48
2022-11-12T10:00:21.331Z,41.76
2022-11-12T10:03:48.298Z,42.13
2022-11-12T10:06:19.365Z,42.56
2022-11-12T10:09:09.804Z,43.58
2022-11-12T10:12:37.841Z,44.23
2022-11-12T10:16:04.630Z,45.54
2022-11-12T10:19:01.298Z,46.46
2022-11-12T10:21:51.295Z,46.25
2022-11-12T10:24:22.806Z,47.18
2022-11-12T10:26:52.399Z,47.60
2022-11-12T10:29:36.643Z,47.14
2022-11-12T10:32:04.156Z,47.03
2022-11-12T10:34:31.633Z,47.72
2022-11-12T10:37:07.782Z,47.58
2022-11-12T10:39:41.595Z,47.76
2022-11-12T10:42:16.567Z,47.44
2022-11-12T10:44:45.763Z,47.14
2022-11-12T10:47:30.622Z,46.02
2022-11-12T10:50:28.963Z,45.76
2022-11-12T10:53:07.473Z,44.96
2022-11-12T10:55:58.944Z,44.48
2022-11-12T10:58:26.454Z,45.55
2022-11-12T11:01:03.088Z,45.23
2022-11-12T11:03:44.476Z,45.07
2022-11-12T11:06:14.978Z,46.68
2022-11-12T11:08:52.327Z,47.53
2022-11-12T11:11:29.098Z,47.99
2022-11-12T11:14:23.698Z,47.71
2022-11-12T11:17:02.203Z,47.81
2022-11-12T11:19:43.444Z,47.38
2022-11-12T11:22:19.787Z,47.28
2022-11-12T11:25:01.361Z,47.54
2022-11-12T11:27:55.811Z,47.63
2022-11-12T11:30:23.860Z,48.04
2022-11-12T11:33:28.050Z,47.51
2022-11-12T11:36:24.521Z,47.13
2022-11-12T11:39:40.205Z,46.14
2022-11-12T11:42:13.583Z,46.96
2022-11-12T11:45:17.205Z,47.91
2022-11-12T11:48:42.127Z,46.18
2022-11-12T11:51:53.098Z,46.00
2022-11-12T11:55:05.028Z,45.34
2022-11-12T11:58:11.663Z,46.03
2022-11-12T12:00:41.692Z,46.45
2022-11-12T12:03:57.976Z,46.31
2022-11-12T12:06:29.850Z,45.02
2022-11-12T12:09:17.907Z,42.20
2022-11-12T12:12:21.813Z,43.52
2022-11-12T12:15:32.512Z,43.52
2022-11-12T12:18:29.076Z,43.72
2022-11-12T12:21:14.386Z,43.58
2022-11-12T12:24:30.027Z,43.22
2022-11-12T12:27:30.638Z,43.48
2022-11-12T12:30:22.772Z,43.69
2022-11-12T12:33:13.904Z,43.48
2022-11-12T12:36:01.375Z,43.70
2022-11-12T12:38:59.663Z,43.59
2022-11-12T12:41:39.497Z,43.41
2022-11-12T12:44:10.306Z,44.59
2022-11-12T12:46:47.536Z,43.12
2022-11-12T12:49:28.557Z,42.59
2022-11-12T12:51:56.139Z,43.16
2022-11-12T12:54:35.978Z,42.30
2022-11-12T12:57:32.226Z,41.95
2022-11-12T13:00:28.887Z,40.69
2022-11-12T13:02:56.782Z,41.83
2022-11-12T13:05:37.459Z,41.39
2022-11-12T13:08:23.426Z,40.79
2022-11-12T13:10:52.358Z,40.49
2022-11-12T13:13:19.466Z,40.44
2022-11-12T13:15:54.896Z,40.66
2022-11-12T13:18:37.558Z,40.70
2022-11-12T13:21:13.069Z,41.26
2022-11-12T13:24:06.713Z,40.87
2022-11-12T13:26:40.037Z,40.05
2022-11-12T13:29:40.788Z,40.05
2022-11-12T13:32:35.634Z,40.09
2022-11-12T13:35:29.706Z,40.43
2022-11-12T13:38:01.115Z,40.49
2022-11-12T13:40:41.387Z,40.24
2022-11-12T13:43:35.975Z,40.12
2022-11-12T13:46:33.334Z,40.41
2022-11-12T13:49:19.663Z,39.69
2022-11-12T13:51:53.269Z,39.06
2022-11-12T13:54:39.764Z,39.05
2022-11-12T13:57:25.020Z,38.80
2022-11-12T14:00:23.282Z,38.62
2022-11-12T14:03:08.020Z,38.23
2022-11-12T14:05:38.760Z,38.11
2022-11-12T14:08:40.542Z,37.63
2022-11-12T14:12:10.757Z,37.37
2022-11-12T14:15:22.428Z,37.21
2022-11-12T14:18:04.784Z,36.45
2022-11-12T14:20:39.905Z,35.66
2022-11-12T14:23:24.808Z,34.06
2022-11-12T14:25:56.132Z,32.70
2022-11-12T14:28:37.370Z,31.98
2022-11-12T14:31:14.095Z,30.75
2022-11-12T14:33:41.560Z,29.93
2022-11-12T14:36:16.481Z,29.39
2022-11-12T14:38:57.144Z,28.83
2022-11-12T14:41:42.877Z,27.52
2022-11-12T14:44:19.424Z,27.01
2022-11-12T14:46:54.086Z,25.80
2022-11-12T14:49:44.751Z,24.32
2022-11-12T14:52:20.791Z,23.45
2022-11-12T14:54:54.990Z,22.65
2022-11-12T14:57:31.468Z,21.74
2022-11-12T14:59:58.960Z,21.04
2022-11-12T15:02:49.843Z,20.55
2022-11-12T15:05:23.524Z,20.13
2022-11-12T15:08:02.926Z,19.58
2022-11-12T15:10:30.733Z,19.28
2022-11-12T15:13:15.788Z,18.96
2022-11-12T15:16:07.513Z,18.43
2022-11-12T15:18:38.883Z,18.24
2022-11-12T15:21:30.035Z,17.65
2022-11-12T15:24:17.077Z,17.42
2022-11-12T15:26:48.528Z,17.26
2022-11-12T15:29:24.582Z,17.09
2022-11-12T15:31:57.760Z,16.85
2022-11-12T15:34:34.683Z,16.73
2022-11-12T15:37:26.449Z,16.53
2022-11-12T15:40:03.916Z,16.41
2022-11-12T15:42:40.070Z,16.24
2022-11-12T15:45:22.085Z,16.14
2022-11-12T15:47:49.528Z,15.86
2022-11-12T15:50:23.777Z,15.83
2022-11-12T15:52:51.410Z,15.71
2022-11-12T15:55:19.412Z,15.58
2022-11-12T15:57:52.288Z,15.59
2022-11-12T16:00:30.628Z,15.46
2022-11-12T16:03:17.346Z,15.42
2022-11-12T16:05:45.771Z,15.28
2022-11-12T16:08:13.510Z,15.24
2022-11-12T16:10:44.482Z,15.22
2022-11-12T16:13:24.249Z,15.19
2022-11-12T16:15:57.242Z,15.15
2022-11-12T16:18:24.454Z,15.09
2022-11-12T16:20:51.981Z,15.04
2022-11-12T16:23:19.189Z,15.07
2022-11-12T16:25:52.230Z,14.99
2022-11-12T16:28:19.691Z,14.94
2022-11-12T16:30:51.015Z,14.85
2022-11-12T16:33:18.490Z,14.73
2022-11-12T16:35:45.751Z,14.66
2022-11-12T16:38:15.578Z,14.59
2022-11-12T16:40:44.899Z,14.57
2022-11-12T16:43:12.247Z,14.53
2022-11-12T16:45:43.844Z,14.42
2022-11-12T16:48:22.400Z,14.33
2022-11-12T16:50:50.010Z,14.25
2022-11-12T16:53:17.141Z,14.15
2022-11-12T16:55:45.053Z,14.08
2022-11-12T16:58:14.353Z,14.04
2022-11-12T17:00:45.984Z,13.98
2022-11-12T17:03:14.073Z,13.88
2022-11-12T17:05:41.511Z,13.83
2022-11-12T17:08:10.922Z,13.78
2022-11-12T17:10:38.690Z,13.72
2022-11-12T17:13:05.844Z,13.66
2022-11-12T17:15:33.349Z,13.64
2022-11-12T17:18:00.511Z,13.60
2022-11-12T17:20:27.981Z,13.48
2022-11-12T17:22:58.178Z,13.40
2022-11-12T17:25:26.748Z,13.32
2022-11-12T17:27:53.953Z,13.21
2022-11-12T17:30:26.529Z,13.08
2022-11-12T17:32:53.744Z,13.05
2022-11-12T17:35:21.263Z,12.94
2022-11-12T17:37:48.421Z,12.84
2022-11-12T17:40:16.172Z,12.78
2022-11-12T17:42:43.310Z,12.71
2022-11-12T17:45:10.879Z,12.68
2022-11-12T17:47:40.425Z,12.66
2022-11-12T17:50:08.516Z,12.61
2022-11-12T17:52:35.947Z,12.56
2022-11-12T17:55:03.289Z,12.13
2022-11-12T17:57:30.433Z,11.88
2022-11-12T17:59:57.956Z,11.49
2022-11-12T18:02:25.119Z,11.33
2022-11-12T18:04:52.299Z,11.11
2022-11-12T18:07:20.092Z,11.04
2022-11-12T18:09:47.389Z,10.90
2022-11-12T18:12:15.573Z,10.74
2022-11-12T18:14:42.725Z,10.55
2022-11-12T18:17:10.488Z,10.36
2022-11-12T18:19:37.689Z,10.20
2022-11-12T18:22:04.993Z,10.18
2022-11-12T18:24:32.539Z,10.03
2022-11-12T18:26:59.716Z,9.89
2022-11-12T18:29:27.366Z,9.86
2022-11-12T18:31:54.617Z,9.66
2022-11-12T18:34:21.848Z,9.47
2022-11-12T18:36:49.326Z,9.37
2022-11-12T18:39:16.520Z,9.45
2022-11-12T18:41:43.775Z,9.41
2022-11-12T18:44:11.343Z,9.27
2022-11-12T18:46:44.857Z,9.27
2022-11-12T18:49:12.307Z,9.39
2022-11-12T18:51:39.777Z,9.34
2022-11-12T18:54:07.380Z,9.19
2022-11-12T18:56:34.858Z,9.28
2022-11-12T18:59:02.011Z,9.25
2022-11-12T19:01:29.566Z,9.14
2022-11-12T19:03:57.669Z,9.04
2022-11-12T19:06:26.419Z,9.09
2022-11-12T19:09:00.645Z,9.05
2022-11-12T19:11:28.188Z,8.98
2022-11-12T19:13:56.322Z,8.82
2022-11-12T19:16:23.947Z,8.82
2022-11-12T19:18:52.379Z,8.74
2022-11-12T19:21:25.086Z,8.75
2022-11-12T19:23:57.247Z,8.74
2022-11-12T19:26:24.794Z,8.75
2022-11-12T19:28:52.538Z,8.78
2022-11-12T19:31:26.783Z,8.79
2022-11-12T19:33:54.959Z,8.71
2022-11-12T19:36:25.951Z,8.73
2022-11-12T19:38:56.717Z,8.77
2022-11-12T19:41:24.866Z,8.57
2022-11-12T19:43:52.958Z,8.61
2022-11-12T19:46:20.796Z,8.52
2022-11-12T19:48:47.980Z,8.51
2022-11-12T19:51:15.203Z,8.58
2022-11-12T19:53:46.771Z,8.53
2022-11-12T19:56:21.007Z,8.52
2022-11-12T19:58:49.628Z,8.41
2022-11-12T20:01:19.020Z,8.45
2022-11-12T20:03:46.858Z,8.51
2022-11-12T20:06:22.562Z,8.67
2022-11-12T20:08:49.778Z,8.76
2022-11-12T20:11:18.963Z,8.77
2022-11-12T20:13:46.840Z,8.78
2022-11-12T20:16:20.945Z,8.84
2022-11-12T20:18:56.137Z,8.66
2022-11-12T20:21:24.785Z,8.74
2022-11-12T20:23:52.001Z,8.74
2022-11-12T20:26:19.699Z,8.74
2022-11-12T20:28:46.916Z,8.67
2022-11-12T20:31:20.802Z,8.62
2022-11-12T20:33:50.940Z,8.59
2022-11-12T20:36:21.229Z,8.64
2022-11-12T20:38:50.396Z,8.78
2022-11-12T20:41:22.013Z,8.75
2022-11-12T20:43:57.842Z,8.71
2022-11-12T20:46:27.124Z,8.67
2022-11-12T20:48:54.954Z,8.67
2022-11-12T20:51:26.255Z,8.75
2022-11-12T20:53:59.928Z,8.86
2022-11-12T20:56:30.633Z,8.81
2022-11-12T20:58:59.377Z,8.85
2022-11-12T21:01:29.466Z,8.72
2022-11-12T21:03:58.017Z,8.71
2022-11-12T21:06:28.967Z,8.67
2022-11-12T21:09:00.065Z,8.72
2022-11-12T21:11:27.619Z,8.37
2022-11-12T21:13:54.876Z,8.27
2022-11-12T21:16:22.308Z,8.24
2022-11-12T21:18:49.771Z,8.36
2022-11-12T21:21:21.334Z,8.28
2022-11-12T21:23:50.437Z,8.21
2022-11-12T21:26:21.162Z,8.20
2022-11-12T21:28:51.447Z,8.16
2022-11-12T21:31:21.722Z,8.13
2022-11-12T21:34:00.261Z,8.17
2022-11-12T21:36:30.198Z,8.20
2022-11-12T21:38:58.430Z,8.16
2022-11-12T21:41:28.814Z,8.26
2022-11-12T21:43:56.259Z,8.41
2022-11-12T21:46:27.581Z,8.43
2022-11-12T21:48:57.128Z,8.52
2022-11-12T21:51:32.364Z,8.60
2022-11-12T21:54:06.732Z,8.59
2022-11-12T21:56:35.566Z,8.53
2022-11-12T21:59:04.221Z,8.40
2022-11-12T22:01:34.486Z,8.33
2022-11-12T22:04:07.208Z,8.40
2022-11-12T22:06:38.382Z,8.55
2022-11-12T22:09:06.392Z,8.50
2022-11-12T22:11:33.582Z,8.55
2022-11-12T22:14:01.060Z,8.59
2022-11-12T22:16:31.786Z,8.73
2022-11-12T22:19:00.501Z,8.78
2022-11-12T22:21:36.753Z,8.75
2022-11-12T22:24:12.876Z,8.71
2022-11-12T22:26:40.313Z,8.74
2022-11-12T22:29:07.429Z,8.81
2022-11-12T22:31:34.715Z,8.88
2022-11-12T22:34:02.600Z,8.86
2022-11-12T22:36:31.655Z,8.88
2022-11-12T22:38:58.990Z,8.90
2022-11-12T22:41:30.010Z,8.88
2022-11-12T22:44:02.492Z,8.78
2022-11-12T22:46:34.645Z,8.75
2022-11-12T22:49:04.119Z,8.69
2022-11-12T22:51:34.953Z,8.71
2022-11-12T22:54:06.276Z,8.71
2022-11-12T22:56:34.014Z,8.72
2022-11-12T22:59:04.845Z,8.76
2022-11-12T23:01:35.183Z,8.81
2022-11-12T23:04:06.373Z,8.87
2022-11-12T23:06:34.729Z,8.94
2022-11-12T23:09:03.589Z,9.04
2022-11-12T23:11:31.758Z,8.99
2022-11-12T23:13:59.255Z,9.03
2022-11-12T23:16:30.728Z,9.07
2022-11-12T23:18:59.383Z,9.16
2022-11-12T23:21:30.215Z,9.14
2022-11-12T23:23:59.157Z,9.09
2022-11-12T23:26:33.817Z,9.10
2022-11-12T23:29:02.184Z,9.13
2022-11-12T23:31:32.234Z,9.02
2022-11-12T23:34:00.975Z,8.91
2022-11-12T23:36:29.051Z,8.88
2022-11-12T23:38:58.390Z,8.93
2022-11-12T23:41:27.487Z,8.97
2022-11-12T23:43:57.275Z,8.99
2022-11-12T23:46:24.922Z,8.90
2022-11-12T23:48:52.132Z,8.81
2022-11-12T23:51:21.910Z,8.80
2022-11-12T23:53:49.855Z,8.83
2022-11-12T23:56:19.944Z,8.88
2022-11-12T23:58:47.632Z,8.88
